Time;durP1;ratioP1;P1;durP2;ratioP2;P2;SDS_P1;SDS_P2;PMS_P1;PMS_P2;Temp;Humidity;BMP_temperature;BMP_pressure;BME280_temperature;BME280_humidity;BME280_pressure;Samples;Min_cycle;Max_cycle;Signal;HPM_P1;HPM_P2
2023/05/12 00:02:16;;;;;;;64.03;24.40;;;;;;;;;;5030377;28;20068;-70
2023/05/12 00:04:41;;;;;;;74.70;23.23;;;;;;;;;;5029273;28;20259;-70
2023/05/12 00:07:06;;;;;;;64.03;24.13;;;;;;;;;;5028086;28;20018;-70
2023/05/12 00:09:32;;;;;;;68.93;24.88;;;;;;;;;;5029703;28;20267;-70
2023/05/12 00:11:57;;;;;;;67.30;24.73;;;;;;;;;;5030023;28;20108;-70
2023/05/12 00:14:22;;;;;;;65.53;24.02;;;;;;;;;;5030312;28;20507;-70
2023/05/12 00:16:50;;;;;;;71.05;24.10;;;;;;;;;;5029980;28;20020;-70
2023/05/12 00:19:16;;;;;;;61.28;22.98;;;;;;;;;;5030009;28;20018;-70
2023/05/12 00:21:42;;;;;;;66.93;22.85;;;;;;;;;;5028580;28;20502;-70
2023/05/12 00:24:07;;;;;;;61.38;21.58;;;;;;;;;;5029662;28;20290;-70
2023/05/12 00:26:32;;;;;;;65.38;21.75;;;;;;;;;;5030147;28;20101;-70
2023/05/12 00:28:57;;;;;;;55.53;21.77;;;;;;;;;;5029847;28;20022;-70
2023/05/12 00:31:23;;;;;;;55.63;21.00;;;;;;;;;;5030256;28;20339;-70
2023/05/12 00:33:48;;;;;;;51.25;19.27;;;;;;;;;;5029790;28;20256;-70
2023/05/12 00:36:13;;;;;;;46.60;19.53;;;;;;;;;;5029100;28;20380;-70
2023/05/12 00:38:38;;;;;;;60.22;20.55;;;;;;;;;;5029781;28;20284;-70
2023/05/12 00:41:03;;;;;;;49.90;19.60;;;;;;;;;;5030238;28;20466;-70
2023/05/12 00:43:30;;;;;;;56.33;20.97;;;;;;;;;;5030034;28;20279;-70
2023/05/12 00:45:55;;;;;;;74.47;23.70;;;;;;;;;;5029793;28;20269;-70
2023/05/12 00:48:20;;;;;;;59.10;22.70;;;;;;;;;;5030272;28;20017;-70
2023/05/12 00:50:45;;;;;;;61.13;21.15;;;;;;;;;;5028040;28;20017;-70
2023/05/12 00:53:11;;;;;;;67.90;22.23;;;;;;;;;;5029646;28;20036;-70
2023/05/12 00:55:37;;;;;;;61.30;20.20;;;;;;;;;;5029811;28;20376;-70
2023/05/12 00:58:02;;;;;;;59.05;21.85;;;;;;;;;;5030041;28;20025;-75
2023/05/12 01:00:27;;;;;;;67.05;21.70;;;;;;;;;;5029876;28;20022;-71
2023/05/12 01:02:53;;;;;;;60.78;22.13;;;;;;;;;;5030656;28;20028;-70
2023/05/12 01:05:18;;;;;;;57.08;20.52;;;;;;;;;;5033446;28;20020;-70
2023/05/12 01:07:45;;;;;;;51.63;18.63;;;;;;;;;;5032292;28;20590;-70
2023/05/12 01:10:18;;;;;;;52.40;19.20;;;;;;;;;;5032451;28;20271;-70
2023/05/12 01:12:43;;;;;;;54.53;20.45;;;;;;;;;;5033302;28;20041;-70
2023/05/12 01:15:09;;;;;;;53.47;19.37;;;;;;;;;;5024944;28;20025;-70
2023/05/12 01:17:34;;;;;;;48.65;17.25;;;;;;;;;;5033262;28;20280;-70
2023/05/12 01:20:01;;;;;;;48.03;17.83;;;;;;;;;;5032893;28;20071;-70
2023/05/12 01:22:30;;;;;;;53.67;20.70;;;;;;;;;;5033146;28;20485;-70
2023/05/12 01:24:59;;;;;;;56.92;19.88;;;;;;;;;;5032025;28;20025;-70
2023/05/12 01:27:26;;;;;;;58.05;19.58;;;;;;;;;;5032857;28;20017;-70
2023/05/12 01:29:51;;;;;;;48.40;18.55;;;;;;;;;;5032870;28;20024;-70
2023/05/12 01:32:17;;;;;;;47.47;17.63;;;;;;;;;;5033073;28;20013;-70
2023/05/12 01:34:42;;;;;;;43.13;16.35;;;;;;;;;;5032802;28;20446;-70
2023/05/12 01:37:08;;;;;;;41.13;15.70;;;;;;;;;;5032796;28;20471;-70
2023/05/12 01:39:34;;;;;;;47.55;15.57;;;;;;;;;;5031153;28;20513;-70
2023/05/12 01:41:59;;;;;;;37.92;15.32;;;;;;;;;;5032062;28;20079;-70
2023/05/12 01:44:24;;;;;;;43.67;14.93;;;;;;;;;;5032512;28;20026;-70
2023/05/12 01:46:49;;;;;;;40.30;15.50;;;;;;;;;;5032801;28;20260;-70
2023/05/12 01:49:14;;;;;;;42.23;15.20;;;;;;;;;;5032868;28;20256;-70
2023/05/12 01:51:39;;;;;;;42.93;14.70;;;;;;;;;;5031927;28;20283;-70
2023/05/12 01:54:05;;;;;;;41.80;14.35;;;;;;;;;;5032481;28;20268;-70
2023/05/12 01:56:30;;;;;;;47.20;15.17;;;;;;;;;;5032450;28;20038;-70
2023/05/12 01:58:55;;;;;;;41.23;14.30;;;;;;;;;;5032181;28;20284;-70
2023/05/12 02:01:22;;;;;;;38.03;14.17;;;;;;;;;;5032506;28;20322;-70
2023/05/12 02:03:47;;;;;;;41.83;14.73;;;;;;;;;;5032495;28;20282;-70
2023/05/12 02:06:12;;;;;;;37.77;13.13;;;;;;;;;;5031623;28;20390;-70
2023/05/12 02:08:37;;;;;;;39.35;14.40;;;;;;;;;;5030801;28;20618;-70
2023/05/12 02:11:03;;;;;;;38.50;14.10;;;;;;;;;;5032106;28;20060;-70
2023/05/12 02:13:29;;;;;;;36.28;14.18;;;;;;;;;;5031825;28;20275;-70
2023/05/12 02:15:54;;;;;;;42.38;14.82;;;;;;;;;;5031852;28;20394;-70
2023/05/12 02:18:19;;;;;;;41.25;15.45;;;;;;;;;;5032056;28;20028;-70
2023/05/12 02:20:45;;;;;;;45.60;14.87;;;;;;;;;;5032007;28;20092;-70
2023/05/12 02:23:10;;;;;;;51.13;17.30;;;;;;;;;;5030751;28;20654;-70
2023/05/12 02:25:35;;;;;;;42.67;15.35;;;;;;;;;;5031801;28;20260;-70
2023/05/12 02:28:00;;;;;;;43.20;15.33;;;;;;;;;;5031765;28;20017;-70
2023/05/12 02:30:26;;;;;;;41.78;14.48;;;;;;;;;;5031949;28;20793;-70
2023/05/12 02:32:51;;;;;;;38.47;14.00;;;;;;;;;;5031637;28;20140;-70
2023/05/12 02:35:16;;;;;;;37.37;14.80;;;;;;;;;;5031003;28;20268;-70
2023/05/12 02:37:41;;;;;;;40.70;13.80;;;;;;;;;;5031139;28;20288;-70
2023/05/12 02:40:07;;;;;;;41.17;14.23;;;;;;;;;;5031576;28;20025;-70
2023/05/12 02:42:34;;;;;;;42.38;14.48;;;;;;;;;;5031793;28;20422;-70
2023/05/12 02:44:59;;;;;;;38.35;13.70;;;;;;;;;;5031655;28;20045;-70
2023/05/12 02:47:24;;;;;;;37.75;13.15;;;;;;;;;;5031770;28;20434;-70
2023/05/12 02:49:50;;;;;;;39.80;14.77;;;;;;;;;;5030490;28;20076;-70
2023/05/12 02:52:15;;;;;;;37.40;13.90;;;;;;;;;;5031031;28;20021;-70
2023/05/12 02:54:40;;;;;;;39.73;13.30;;;;;;;;;;5031277;28;20025;-70
2023/05/12 02:57:05;;;;;;;42.50;14.17;;;;;;;;;;5031142;28;20032;-70
2023/05/12 02:59:31;;;;;;;31.60;12.70;;;;;;;;;;5031241;28;20083;-70
2023/05/12 03:01:56;;;;;;;36.10;13.07;;;;;;;;;;5031067;28;20112;-70
2023/05/12 03:04:21;;;;;;;32.83;12.10;;;;;;;;;;5031280;28;20096;-70
2023/05/12 03:06:46;;;;;;;24.07;10.47;;;;;;;;;;5031092;28;20276;-70
2023/05/12 03:09:12;;;;;;;28.50;12.02;;;;;;;;;;5030789;28;20014;-70
2023/05/12 03:11:37;;;;;;;28.70;10.07;;;;;;;;;;5030946;28;20043;-71
2023/05/12 03:14:02;;;;;;;27.20;10.80;;;;;;;;;;5030853;28;20155;-70
2023/05/12 03:16:27;;;;;;;21.50;9.07;;;;;;;;;;5030832;28;20260;-70
2023/05/12 03:18:52;;;;;;;27.10;9.63;;;;;;;;;;5030621;28;20788;-70
2023/05/12 03:21:18;;;;;;;17.77;8.88;;;;;;;;;;5028545;28;20267;-70
2023/05/12 03:23:43;;;;;;;27.83;9.37;;;;;;;;;;5030810;28;20017;-70
2023/05/12 03:26:08;;;;;;;22.80;8.77;;;;;;;;;;5029985;28;20763;-70
2023/05/12 03:28:33;;;;;;;20.23;9.10;;;;;;;;;;5030760;28;20339;-70
2023/05/12 03:30:58;;;;;;;23.07;9.27;;;;;;;;;;5030435;28;20262;-70
2023/05/12 03:33:23;;;;;;;22.47;9.73;;;;;;;;;;5030811;28;20268;-70
2023/05/12 03:35:49;;;;;;;24.30;9.23;;;;;;;;;;5029630;28;20304;-70
2023/05/12 03:38:14;;;;;;;22.92;9.98;;;;;;;;;;5030453;28;20371;-70
2023/05/12 03:40:39;;;;;;;21.57;8.63;;;;;;;;;;5031006;28;20028;-70
2023/05/12 03:43:04;;;;;;;23.20;9.07;;;;;;;;;;5030861;28;20248;-70
2023/05/12 03:45:29;;;;;;;22.27;9.63;;;;;;;;;;5030586;28;20253;-70
2023/05/12 03:47:55;;;;;;;22.27;8.17;;;;;;;;;;5030575;28;20075;-70
2023/05/12 03:50:20;;;;;;;20.85;9.60;;;;;;;;;;5029238;28;20653;-70
2023/05/12 03:52:45;;;;;;;27.43;8.90;;;;;;;;;;5030472;28;20494;-70
2023/05/12 03:55:10;;;;;;;22.33;8.65;;;;;;;;;;5028413;28;20359;-70
2023/05/12 03:57:37;;;;;;;26.97;10.13;;;;;;;;;;5030246;28;20096;-70
2023/05/12 04:00:03;;;;;;;26.10;10.80;;;;;;;;;;5030137;28;20780;-70
2023/05/12 04:02:28;;;;;;;21.13;9.65;;;;;;;;;;5030336;28;20502;-70
2023/05/12 04:04:54;;;;;;;28.67;9.20;;;;;;;;;;5030337;28;20026;-70
2023/05/12 04:07:19;;;;;;;17.57;7.73;;;;;;;;;;5029921;28;20093;-70
2023/05/12 04:09:44;;;;;;;22.67;8.48;;;;;;;;;;5030113;28;20310;-70
2023/05/12 04:12:09;;;;;;;19.27;8.00;;;;;;;;;;5028900;28;20024;-70
2023/05/12 04:14:35;;;;;;;14.90;7.45;;;;;;;;;;5030388;28;20108;-70
2023/05/12 04:17:00;;;;;;;17.97;7.90;;;;;;;;;;5028674;28;20022;-70
2023/05/12 04:19:25;;;;;;;18.33;8.50;;;;;;;;;;5030060;28;20294;-69
2023/05/12 04:21:50;;;;;;;16.25;7.25;;;;;;;;;;5025239;28;20403;-69
2023/05/12 04:24:15;;;;;;;16.60;6.93;;;;;;;;;;5029994;28;20033;-70
2023/05/12 04:26:41;;;;;;;15.90;6.73;;;;;;;;;;5030033;28;20471;-69
2023/05/12 04:29:06;;;;;;;12.60;6.33;;;;;;;;;;5030147;28;20268;-69
2023/05/12 04:31:31;;;;;;;14.73;6.88;;;;;;;;;;5030232;28;20310;-69
2023/05/12 04:33:56;;;;;;;13.40;5.87;;;;;;;;;;5029809;28;20368;-70
2023/05/12 04:36:22;;;;;;;10.67;5.27;;;;;;;;;;5028311;28;20284;-70
2023/05/12 04:38:47;;;;;;;6.32;3.03;;;;;;;;;;5033741;28;20353;-70
2023/05/12 04:41:12;;;;;;;7.82;3.53;;;;;;;;;;5034316;28;20092;-70
2023/05/12 04:43:37;;;;;;;5.17;3.00;;;;;;;;;;5033556;28;20607;-69
2023/05/12 04:46:03;;;;;;;5.57;3.15;;;;;;;;;;5033196;28;20299;-69
2023/05/12 04:48:28;;;;;;;5.53;3.25;;;;;;;;;;5033653;28;20045;-69
2023/05/12 04:50:53;;;;;;;7.45;3.22;;;;;;;;;;5029391;28;20021;-69
2023/05/12 04:53:18;;;;;;;6.03;3.05;;;;;;;;;;5033133;28;20051;-69
2023/05/12 04:55:44;;;;;;;7.03;3.50;;;;;;;;;;5033772;28;20383;-69
2023/05/12 04:58:11;;;;;;;4.72;2.97;;;;;;;;;;5031629;28;20276;-69
2023/05/12 05:00:36;;;;;;;4.50;3.22;;;;;;;;;;5030828;28;20104;-69
2023/05/12 05:03:01;;;;;;;4.70;2.55;;;;;;;;;;5032902;28;20100;-69
2023/05/12 05:05:26;;;;;;;11.47;3.23;;;;;;;;;;5030102;28;20023;-69
2023/05/12 05:07:51;;;;;;;5.83;3.47;;;;;;;;;;5033037;28;20753;-69
2023/05/12 05:10:17;;;;;;;6.13;2.87;;;;;;;;;;5033334;28;20335;-69
2023/05/12 05:12:42;;;;;;;4.50;2.97;;;;;;;;;;5033298;28;20625;-69
2023/05/12 05:15:10;;;;;;;4.80;2.70;;;;;;;;;;5033034;28;20044;-69
2023/05/12 05:17:35;;;;;;;8.85;3.00;;;;;;;;;;5033424;28;20267;-69
2023/05/12 05:20:00;;;;;;;4.67;2.63;;;;;;;;;;5031822;28;20021;-69
2023/05/12 05:22:26;;;;;;;6.03;2.87;;;;;;;;;;5032993;28;20253;-69
2023/05/12 05:24:51;;;;;;;6.40;3.38;;;;;;;;;;5032942;28;20262;-69
2023/05/12 05:27:16;;;;;;;10.70;3.42;;;;;;;;;;5033069;28;20041;-69
2023/05/12 05:29:42;;;;;;;4.13;2.70;;;;;;;;;;5032864;28;20017;-69
2023/05/12 05:32:07;;;;;;;7.60;3.10;;;;;;;;;;5032789;28;20670;-69
2023/05/12 05:34:32;;;;;;;4.90;2.80;;;;;;;;;;5031324;28;20101;-69
2023/05/12 05:36:57;;;;;;;5.27;3.37;;;;;;;;;;5032406;28;20263;-69
2023/05/12 05:39:22;;;;;;;9.13;3.30;;;;;;;;;;5032975;28;20335;-69
2023/05/12 05:41:48;;;;;;;6.70;3.60;;;;;;;;;;5032957;28;20259;-69
2023/05/12 05:44:13;;;;;;;8.18;3.20;;;;;;;;;;5032693;28;20028;-69
2023/05/12 05:46:38;;;;;;;5.27;2.83;;;;;;;;;;5032629;28;20112;-69
2023/05/12 05:49:03;;;;;;;7.13;3.07;;;;;;;;;;5030820;28;20279;-69
2023/05/12 05:51:28;;;;;;;4.40;2.90;;;;;;;;;;5034878;28;20323;-69
2023/05/12 05:53:53;;;;;;;4.20;2.65;;;;;;;;;;5029841;28;20299;-69
2023/05/12 05:56:19;;;;;;;7.77;3.53;;;;;;;;;;5032099;28;20096;-69
2023/05/12 05:58:44;;;;;;;5.77;3.23;;;;;;;;;;5032141;28;20773;-69
2023/05/12 06:01:09;;;;;;;5.17;3.30;;;;;;;;;;5033520;28;20304;-69
2023/05/12 06:03:34;;;;;;;7.07;3.03;;;;;;;;;;5031543;28;20598;-69
2023/05/12 06:06:00;;;;;;;3.20;2.30;;;;;;;;;;5031761;28;20362;-69
2023/05/12 06:08:25;;;;;;;5.35;3.25;;;;;;;;;;5032235;28;20022;-69
2023/05/12 06:10:50;;;;;;;5.20;3.25;;;;;;;;;;5032076;28;20049;-69
2023/05/12 06:13:15;;;;;;;7.70;3.20;;;;;;;;;;5032275;28;20513;-69
2023/05/12 06:15:40;;;;;;;10.10;3.00;;;;;;;;;;5030493;28;20084;-69
2023/05/12 06:18:06;;;;;;;5.60;3.33;;;;;;;;;;5031163;28;20289;-69
2023/05/12 06:20:31;;;;;;;6.80;3.33;;;;;;;;;;5031469;28;20264;-69
2023/05/12 06:22:56;;;;;;;5.82;3.33;;;;;;;;;;5031985;28;20597;-69
2023/05/12 06:25:21;;;;;;;8.35;3.60;;;;;;;;;;5031763;28;20036;-69
2023/05/12 06:27:49;;;;;;;5.28;3.30;;;;;;;;;;5031939;28;20028;-69
2023/05/12 06:30:14;;;;;;;5.03;3.38;;;;;;;;;;5030985;28;20029;-69
2023/05/12 06:32:39;;;;;;;5.20;3.30;;;;;;;;;;5031659;28;20025;-69
2023/05/12 06:35:05;;;;;;;4.25;2.67;;;;;;;;;;5031667;28;20260;-69
2023/05/12 06:37:30;;;;;;;8.90;3.00;;;;;;;;;;5031746;28;20188;-69
2023/05/12 06:39:55;;;;;;;9.47;3.73;;;;;;;;;;5031562;28;20025;-69
2023/05/12 06:42:21;;;;;;;8.80;3.20;;;;;;;;;;5031661;28;20283;-69
2023/05/12 06:44:46;;;;;;;5.73;3.47;;;;;;;;;;5026080;28;20291;-69
2023/05/12 06:47:11;;;;;;;4.87;2.87;;;;;;;;;;5031108;28;20256;-69
2023/05/12 06:49:37;;;;;;;8.40;3.25;;;;;;;;;;5031391;28;20029;-69
2023/05/12 06:52:03;;;;;;;6.63;3.10;;;;;;;;;;5031253;28;20380;-69
2023/05/12 06:54:28;;;;;;;12.40;3.58;;;;;;;;;;5031409;28;20032;-69
2023/05/12 06:56:53;;;;;;;9.20;3.40;;;;;;;;;;5030998;28;20028;-69
2023/05/12 06:59:18;;;;;;;5.90;3.30;;;;;;;;;;5029265;28;20846;-69
2023/05/12 07:01:43;;;;;;;5.07;3.30;;;;;;;;;;5029777;28;20287;-69
2023/05/12 07:04:09;;;;;;;4.93;2.43;;;;;;;;;;5031015;28;20244;-69
2023/05/12 07:06:34;;;;;;;4.78;3.13;;;;;;;;;;5031296;28;20644;-69
2023/05/12 07:08:59;;;;;;;6.50;2.50;;;;;;;;;;5030728;28;20025;-69
2023/05/12 07:11:24;;;;;;;2.75;1.52;;;;;;;;;;5030793;28;20040;-69
2023/05/12 07:13:50;;;;;;;5.65;2.85;;;;;;;;;;5028367;28;20044;-69
2023/05/12 07:16:16;;;;;;;4.30;2.97;;;;;;;;;;5030603;28;20092;-69
2023/05/12 07:18:41;;;;;;;4.47;2.70;;;;;;;;;;5030762;28;20482;-69
2023/05/12 07:21:06;;;;;;;5.83;3.23;;;;;;;;;;5030972;28;20014;-69
2023/05/12 07:23:33;;;;;;;3.35;2.30;;;;;;;;;;5030859;28;20280;-69
2023/05/12 07:25:59;;;;;;;3.97;2.85;;;;;;;;;;5030480;28;20018;-69
2023/05/12 07:28:24;;;;;;;2.65;1.63;;;;;;;;;;5030027;28;20025;-69
2023/05/12 07:30:49;;;;;;;3.65;2.33;;;;;;;;;;5030324;28;20483;-69
2023/05/12 07:33:14;;;;;;;2.00;1.60;;;;;;;;;;5030867;28;20535;-69
2023/05/12 07:35:39;;;;;;;3.67;2.13;;;;;;;;;;5030655;28;20021;-69
2023/05/12 07:38:05;;;;;;;3.60;2.10;;;;;;;;;;5030541;28;20017;-69
2023/05/12 07:40:30;;;;;;;3.35;2.25;;;;;;;;;;5030850;28;20310;-69
2023/05/12 07:42:55;;;;;;;4.73;2.30;;;;;;;;;;5026146;28;20045;-69
2023/05/12 07:45:24;;;;;;;6.03;1.77;;;;;;;;;;5030232;28;20343;-69
2023/05/12 07:47:49;;;;;;;3.10;2.03;;;;;;;;;;5030220;28;20753;-69
2023/05/12 07:50:15;;;;;;;5.68;2.00;;;;;;;;;;5030317;28;20138;-69
2023/05/12 07:52:47;;;;;;;5.07;2.60;;;;;;;;;;5030237;28;20442;-69
2023/05/12 07:55:12;;;;;;;3.72;2.17;;;;;;;;;;5030341;28;20122;-69
2023/05/12 07:57:38;;;;;;;2.37;1.40;;;;;;;;;;5028105;28;20494;-69
2023/05/12 08:00:03;;;;;;;9.13;1.57;;;;;;;;;;5029582;28;20291;-69
2023/05/12 08:02:29;;;;;;;4.72;2.05;;;;;;;;;;5029048;28;20265;-69
2023/05/12 08:04:54;;;;;;;3.85;1.30;;;;;;;;;;5028093;28;20109;-69
2023/05/12 08:07:19;;;;;;;0.77;0.50;;;;;;;;;;5030263;28;20578;-69
2023/05/12 08:09:44;;;;;;;5.40;2.07;;;;;;;;;;5030052;28;20283;-69
2023/05/12 08:12:09;;;;;;;2.93;1.70;;;;;;;;;;5029611;28;20343;-69
2023/05/12 08:14:34;;;;;;;3.10;2.00;;;;;;;;;;5030297;28;20264;-69
2023/05/12 08:17:00;;;;;;;3.03;1.80;;;;;;;;;;5030040;28;20589;-69
2023/05/12 08:19:25;;;;;;;4.70;2.47;;;;;;;;;;5029253;28;20014;-69
2023/05/12 08:21:50;;;;;;;3.27;2.03;;;;;;;;;;5029993;28;20022;-69
2023/05/12 08:24:15;;;;;;;1.83;1.13;;;;;;;;;;5030045;28;20785;-69
2023/05/12 08:26:40;;;;;;;2.00;1.30;;;;;;;;;;5029899;28;20306;-69
2023/05/12 08:29:07;;;;;;;5.35;2.10;;;;;;;;;;5030559;28;20606;-69
2023/05/12 08:31:32;;;;;;;2.85;2.00;;;;;;;;;;5031490;28;20018;-69
2023/05/12 08:33:57;;;;;;;3.22;1.63;;;;;;;;;;5029597;28;20033;-69
2023/05/12 08:36:23;;;;;;;2.85;1.70;;;;;;;;;;5030159;28;20052;-69
2023/05/12 08:38:48;;;;;;;3.47;1.80;;;;;;;;;;5030184;28;20026;-69
2023/05/12 08:41:24;;;;;;;3.00;1.83;;;;;;;;;;5030261;28;20256;-69
2023/05/12 08:43:50;;;;;;;4.57;2.53;;;;;;;;;;5028320;28;20626;-69
2023/05/12 08:46:15;;;;;;;2.60;1.90;;;;;;;;;;5029475;28;20021;-68
2023/05/12 08:48:41;;;;;;;6.72;2.10;;;;;;;;;;5029763;28;20041;-69
2023/05/12 08:51:11;;;;;;;9.95;2.35;;;;;;;;;;5029748;28;20040;-69
2023/05/12 08:53:37;;;;;;;4.88;0.98;;;;;;;;;;5029847;28;20045;-69
2023/05/12 08:56:04;;;;;;;7.70;2.08;;;;;;;;;;5028222;28;20079;-69
2023/05/12 08:58:29;;;;;;;7.82;2.25;;;;;;;;;;5028399;28;20029;-69
2023/05/12 09:00:56;;;;;;;4.88;2.03;;;;;;;;;;5028621;28;20022;-69
2023/05/12 09:03:22;;;;;;;2.67;1.65;;;;;;;;;;5029426;28;20109;-69
2023/05/12 09:05:47;;;;;;;3.90;2.17;;;;;;;;;;5029433;28;20028;-69
2023/05/12 09:08:12;;;;;;;6.38;2.30;;;;;;;;;;5029691;28;20474;-69
2023/05/12 09:10:38;;;;;;;3.58;2.17;;;;;;;;;;5029779;28;20025;-69
2023/05/12 09:13:15;;;;;;;2.50;1.75;;;;;;;;;;5029538;28;20181;-69
2023/05/12 09:15:43;;;;;;;4.05;2.30;;;;;;;;;;5028507;28;20487;-69
2023/05/12 09:18:08;;;;;;;4.35;2.00;;;;;;;;;;5029338;28;20025;-69
2023/05/12 09:20:33;;;;;;;3.35;1.75;;;;;;;;;;5029667;28;20478;-69
2023/05/12 09:23:09;;;;;;;2.65;1.98;;;;;;;;;;5028550;28;20471;-69
2023/05/12 09:25:35;;;;;;;1.48;1.17;;;;;;;;;;5030761;28;20032;-68
2023/05/12 09:28:01;;;;;;;3.70;1.60;;;;;;;;;;5032649;28;20022;-68
2023/05/12 09:30:30;;;;;;;4.53;2.17;;;;;;;;;;5033143;28;20018;-69
2023/05/12 09:33:06;;;;;;;4.57;2.10;;;;;;;;;;5033269;28;20028;-68
2023/05/12 09:35:31;;;;;;;2.10;1.45;;;;;;;;;;5032891;28;20067;-69
2023/05/12 09:37:56;;;;;;;3.13;2.00;;;;;;;;;;5031056;28;20026;-69
2023/05/12 09:40:21;;;;;;;4.23;2.20;;;;;;;;;;5029494;28;20044;-69
2023/05/12 09:42:46;;;;;;;2.67;1.77;;;;;;;;;;5032589;28;20264;-69
2023/05/12 09:45:12;;;;;;;2.57;1.80;;;;;;;;;;5032332;28;20017;-69
2023/05/12 09:47:38;;;;;;;2.25;1.50;;;;;;;;;;5032928;28;20264;-69
2023/05/12 09:50:04;;;;;;;5.60;1.67;;;;;;;;;;5032156;28;20032;-68
2023/05/12 09:52:34;;;;;;;3.42;2.00;;;;;;;;;;5031381;28;20036;-68
2023/05/12 09:55:09;;;;;;;3.37;1.60;;;;;;;;;;5031917;28;20544;-69
2023/05/12 09:57:35;;;;;;;2.58;1.80;;;;;;;;;;5032448;28;20249;-69
2023/05/12 10:00:00;;;;;;;2.75;1.90;;;;;;;;;;5032174;28;20502;-69
2023/05/12 10:02:26;;;;;;;3.40;1.80;;;;;;;;;;5032647;28;20067;-69
2023/05/12 10:04:55;;;;;;;4.38;1.98;;;;;;;;;;5032153;28;20025;-69
2023/05/12 10:07:21;;;;;;;3.63;1.58;;;;;;;;;;5031582;28;20069;-69
2023/05/12 10:09:47;;;;;;;3.05;1.55;;;;;;;;;;5029925;28;20498;-69
2023/05/12 10:12:13;;;;;;;9.07;2.50;;;;;;;;;;5030898;28;20026;-69
2023/05/12 10:14:39;;;;;;;7.93;1.88;;;;;;;;;;5032176;28;20071;-69
2023/05/12 10:17:05;;;;;;;3.33;1.60;;;;;;;;;;5032229;28;20021;-69
2023/05/12 10:19:31;;;;;;;3.08;2.13;;;;;;;;;;5032139;28;20037;-69
2023/05/12 10:21:57;;;;;;;3.22;1.40;;;;;;;;;;5031018;28;20009;-68
2023/05/12 10:24:24;;;;;;;4.95;1.75;;;;;;;;;;5032050;28;20364;-69
2023/05/12 10:26:49;;;;;;;4.30;1.55;;;;;;;;;;5031719;28;20030;-69
2023/05/12 10:29:14;;;;;;;4.90;2.03;;;;;;;;;;5031987;28;20028;-69
2023/05/12 10:31:42;;;;;;;2.90;1.67;;;;;;;;;;5032088;28;20271;-68
2023/05/12 10:34:14;;;;;;;1.90;1.25;;;;;;;;;;5031632;28;20071;-68
2023/05/12 10:36:46;;;;;;;2.53;1.80;;;;;;;;;;5030934;28;20028;-69
2023/05/12 10:39:13;;;;;;;2.50;1.70;;;;;;;;;;5031241;28;20037;-69
2023/05/12 10:41:39;;;;;;;2.72;1.70;;;;;;;;;;5031663;28;20036;-68
2023/05/12 10:44:04;;;;;;;6.78;2.17;;;;;;;;;;5031532;28;20013;-68
2023/05/12 10:46:30;;;;;;;2.20;1.73;;;;;;;;;;5031561;28;20382;-68
2023/05/12 10:48:57;;;;;;;2.85;1.25;;;;;;;;;;5031406;28;20040;-69
2023/05/12 10:51:23;;;;;;;2.60;1.50;;;;;;;;;;5028451;28;20021;-69
2023/05/12 10:53:52;;;;;;;1.48;0.63;;;;;;;;;;5031218;28;20032;-68
2023/05/12 10:56:22;;;;;;;3.10;1.65;;;;;;;;;;5027291;28;20080;-68
2023/05/12 10:59:06;;;;;;;2.50;1.42;;;;;;;;;;5028922;28;20084;-69
2023/05/12 11:01:31;;;;;;;3.35;1.95;;;;;;;;;;5031121;28;20025;-69
2023/05/12 11:03:57;;;;;;;3.40;1.73;;;;;;;;;;5031015;28;20032;-69
2023/05/12 11:06:24;;;;;;;4.20;1.90;;;;;;;;;;5031041;28;20270;-68
2023/05/12 11:08:49;;;;;;;6.03;1.77;;;;;;;;;;5031170;28;20044;-69
2023/05/12 11:11:17;;;;;;;3.65;1.40;;;;;;;;;;5030936;28;20030;-68
2023/05/12 11:13:44;;;;;;;6.75;2.22;;;;;;;;;;5029422;28;20024;-69
2023/05/12 11:16:11;;;;;;;3.38;1.63;;;;;;;;;;5030787;28;20014;-69
2023/05/12 11:18:36;;;;;;;6.82;2.92;;;;;;;;;;5031292;28;20030;-68
2023/05/12 11:21:07;;;;;;;2.37;1.87;;;;;;;;;;5030730;28;20017;-69
2023/05/12 11:23:33;;;;;;;19.52;3.70;;;;;;;;;;5030953;28;20021;-69
2023/05/12 11:25:58;;;;;;;6.28;1.77;;;;;;;;;;5030485;28;20063;-69
2023/05/12 11:28:23;;;;;;;3.20;1.73;;;;;;;;;;5027814;28;20105;-66
2023/05/12 11:30:49;;;;;;;3.80;1.97;;;;;;;;;;5030864;28;20255;-66
2023/05/12 11:33:18;;;;;;;4.47;2.30;;;;;;;;;;5030672;28;20561;-66
2023/05/12 11:35:43;;;;;;;6.85;1.77;;;;;;;;;;5030647;28;20530;-66
2023/05/12 11:38:17;;;;;;;7.90;2.30;;;;;;;;;;5030626;28;20105;-66
2023/05/12 11:40:43;;;;;;;4.55;1.50;;;;;;;;;;5030582;28;20024;-66
2023/05/12 11:43:09;;;;;;;5.28;2.20;;;;;;;;;;5029388;28;20014;-66
2023/05/12 11:45:34;;;;;;;0.55;0.55;;;;;;;;;;5030090;28;20014;-67
2023/05/12 11:48:06;;;;;;;1.33;1.08;;;;;;;;;;5029891;28;20108;-66
2023/05/12 11:50:31;;;;;;;3.33;1.80;;;;;;;;;;5030325;28;20513;-66
2023/05/12 11:52:57;;;;;;;3.58;1.80;;;;;;;;;;5030251;28;20030;-66
2023/05/12 11:55:23;;;;;;;2.40;1.80;;;;;;;;;;5030161;28;20032;-66
2023/05/12 11:57:56;;;;;;;9.10;2.13;;;;;;;;;;5028993;28;20024;-66
2023/05/12 12:00:26;;;;;;;8.23;1.75;;;;;;;;;;5026719;28;20022;-66
2023/05/12 12:02:51;;;;;;;3.72;1.65;;;;;;;;;;5030257;28;20100;-66
2023/05/12 12:05:17;;;;;;;5.47;2.00;;;;;;;;;;5029979;28;20543;-67
2023/05/12 12:07:42;;;;;;;4.43;1.83;;;;;;;;;;5030204;28;20022;-66
2023/05/12 12:10:14;;;;;;;3.03;2.13;;;;;;;;;;5030202;28;20072;-66
2023/05/12 12:12:40;;;;;;;4.47;1.85;;;;;;;;;;5030688;28;20021;-66
2023/05/12 12:15:06;;;;;;;3.03;1.90;;;;;;;;;;5029936;28;20052;-67
2023/05/12 12:17:31;;;;;;;6.95;2.28;;;;;;;;;;5030235;28;20105;-67
2023/05/12 12:19:56;;;;;;;3.43;1.97;;;;;;;;;;5029900;28;20172;-67
2023/05/12 12:22:22;;;;;;;5.55;2.08;;;;;;;;;;5030043;28;20387;-67
2023/05/12 12:24:47;;;;;;;3.03;1.90;;;;;;;;;;5029802;28;20014;-67
2023/05/12 12:27:12;;;;;;;2.53;1.90;;;;;;;;;;5029078;28;20028;-67
2023/05/12 12:29:38;;;;;;;4.10;2.47;;;;;;;;;;5030110;28;20390;-67
2023/05/12 12:32:03;;;;;;;3.13;1.67;;;;;;;;;;5030228;28;20018;-69
2023/05/12 12:34:28;;;;;;;3.17;2.05;;;;;;;;;;5030399;28;20022;-69
2023/05/12 12:36:54;;;;;;;6.47;2.30;;;;;;;;;;5029929;28;20498;-69
2023/05/12 12:39:22;;;;;;;2.58;1.80;;;;;;;;;;5029742;28;20441;-69
2023/05/12 12:41:47;;;;;;;6.97;2.40;;;;;;;;;;5028433;28;20010;-70
2023/05/12 12:44:12;;;;;;;4.07;1.98;;;;;;;;;;5029572;28;20025;-69
2023/05/12 12:46:37;;;;;;;4.83;2.13;;;;;;;;;;5029703;28;20483;-70
2023/05/12 12:49:02;;;;;;;4.10;1.90;;;;;;;;;;5029582;28;20270;-70
2023/05/12 12:51:29;;;;;;;5.85;2.05;;;;;;;;;;5029719;28;20363;-70
2023/05/12 12:53:55;;;;;;;1.95;1.50;;;;;;;;;;5029748;28;20052;-70
2023/05/12 12:56:21;;;;;;;3.08;1.73;;;;;;;;;;5028050;28;20061;-70
2023/05/12 12:58:46;;;;;;;5.65;1.83;;;;;;;;;;5028297;28;20492;-70
2023/05/12 13:01:11;;;;;;;2.17;1.80;;;;;;;;;;5030273;28;20105;-70
2023/05/12 13:03:36;;;;;;;5.67;2.00;;;;;;;;;;5033681;28;20017;-70
2023/05/12 13:06:02;;;;;;;3.25;1.83;;;;;;;;;;5033248;28;20610;-69
2023/05/12 13:08:27;;;;;;;1.98;1.60;;;;;;;;;;5033336;28;20379;-70
2023/05/12 13:10:53;;;;;;;3.57;1.87;;;;;;;;;;5031246;28;20017;-70
2023/05/12 13:13:18;;;;;;;7.75;2.30;;;;;;;;;;5032839;28;20256;-70
2023/05/12 13:15:43;;;;;;;5.23;1.67;;;;;;;;;;5033356;28;20036;-70
2023/05/12 13:18:09;;;;;;;4.07;1.63;;;;;;;;;;5030308;28;20352;-70
2023/05/12 13:20:34;;;;;;;2.67;1.60;;;;;;;;;;5031682;28;20025;-70
2023/05/12 13:22:59;;;;;;;3.03;2.13;;;;;;;;;;5033064;28;20024;-67
2023/05/12 13:25:24;;;;;;;3.40;1.90;;;;;;;;;;5032881;28;20686;-68
2023/05/12 13:27:51;;;;;;;2.50;1.77;;;;;;;;;;5030840;28;20104;-67
2023/05/12 13:30:16;;;;;;;4.95;1.95;;;;;;;;;;5033010;28;20092;-70
2023/05/12 13:32:41;;;;;;;5.67;2.20;;;;;;;;;;5033310;28;20113;-70
2023/05/12 13:35:07;;;;;;;3.73;1.70;;;;;;;;;;5032934;28;20026;-70
2023/05/12 13:37:32;;;;;;;5.95;1.50;;;;;;;;;;5032887;28;20347;-70
2023/05/12 13:39:58;;;;;;;2.88;1.77;;;;;;;;;;5032957;28;20443;-70
2023/05/12 13:42:23;;;;;;;3.38;2.08;;;;;;;;;;5031413;28;20020;-70
2023/05/12 13:44:48;;;;;;;2.83;1.95;;;;;;;;;;5032035;28;20023;-70
2023/05/12 13:47:14;;;;;;;8.57;3.33;;;;;;;;;;5032722;28;20471;-70
2023/05/12 13:49:39;;;;;;;4.28;2.20;;;;;;;;;;5032524;28;20026;-70
2023/05/12 13:52:05;;;;;;;2.80;1.87;;;;;;;;;;5032557;28;20036;-70
2023/05/12 13:54:30;;;;;;;6.47;1.83;;;;;;;;;;5032384;28;20268;-71
2023/05/12 13:56:55;;;;;;;3.87;1.70;;;;;;;;;;5029186;28;20025;-70
2023/05/12 13:59:21;;;;;;;4.13;1.87;;;;;;;;;;5030653;28;20283;-70
2023/05/12 14:01:46;;;;;;;6.95;2.17;;;;;;;;;;5030203;28;20471;-70
2023/05/12 14:04:11;;;;;;;3.37;1.73;;;;;;;;;;5032354;28;20024;-70
2023/05/12 14:06:36;;;;;;;4.95;1.50;;;;;;;;;;5031970;28;20256;-68
2023/05/12 14:09:04;;;;;;;5.32;1.70;;;;;;;;;;5031483;28;20021;-68
2023/05/12 14:11:29;;;;;;;2.53;1.73;;;;;;;;;;5032278;28;20356;-68
2023/05/12 14:13:54;;;;;;;6.50;1.60;;;;;;;;;;5031110;28;20029;-68
2023/05/12 14:16:20;;;;;;;5.23;1.80;;;;;;;;;;5031613;28;20044;-68
2023/05/12 14:18:45;;;;;;;5.67;1.80;;;;;;;;;;5032138;28;20029;-68
2023/05/12 14:21:10;;;;;;;6.17;1.83;;;;;;;;;;5020773;28;20275;-68
2023/05/12 14:23:36;;;;;;;2.20;1.57;;;;;;;;;;5027213;28;20264;-68
2023/05/12 14:26:03;;;;;;;2.65;1.48;;;;;;;;;;5030238;28;20292;-68
2023/05/12 14:28:28;;;;;;;2.58;1.40;;;;;;;;;;5024646;28;20497;-68